VYT531 EGOV-EGOV

Flight info

Callsign VYT531
Flight time 0h 56m
Altitude 10000
Route OAT
Aircraft HAWK/M-V/N

Departure

Time 2026-04-25 19:28
Airport Anglesey Airport (EGOV)

Arrival

Time 2026-04-25 20:24
Airport Anglesey Airport (EGOV)
Time Latitude Longitude Altitude Speed Heading
2026-04-25 19:25 53.25135 -4.53701 33 ft 9 kts 311°
2026-04-25 19:25 53.25184 -4.53794 32 ft 13 kts 309°
2026-04-25 19:25 53.25256 -4.53931 31 ft 17 kts 310°
2026-04-25 19:26 53.25330 -4.54079 32 ft 16 kts 311°
2026-04-25 19:26 53.25380 -4.54180 33 ft 18 kts 309°
2026-04-25 19:26 53.25460 -4.54339 34 ft 17 kts 304°
2026-04-25 19:26 53.25459 -4.54506 35 ft 14 kts 230°
2026-04-25 19:27 53.25386 -4.54597 35 ft 13 kts 194°
2026-04-25 19:27 53.25349 -4.54572 36 ft 7 kts 130°
2026-04-25 19:27 53.24840 -4.53581 45 ft 142 kts 128°
2026-04-25 19:27 53.24048 -4.51993 530 ft 215 kts 130°
2026-04-25 19:28 53.23348 -4.50670 1433 ft 243 kts 131°
2026-04-25 19:28 53.21722 -4.49691 2412 ft 254 kts 172°
2026-04-25 19:28 53.19950 -4.49236 2553 ft 262 kts 171°
2026-04-25 19:28 53.18146 -4.48805 2332 ft 267 kts 175°
2026-04-25 19:29 53.16617 -4.47745 2931 ft 223 kts 85°
2026-04-25 19:29 53.17693 -4.46935 4238 ft 206 kts 305°
2026-04-25 19:29 53.18582 -4.48823 4049 ft 208 kts 307°
2026-04-25 19:29 53.19456 -4.50744 4026 ft 210 kts 305°
2026-04-25 19:30 53.20273 -4.52911 4104 ft 230 kts 300°
2026-04-25 19:30 53.21182 -4.55354 3884 ft 262 kts 300°
2026-04-25 19:30 53.21106 -4.57660 3995 ft 203 kts 173°
2026-04-25 19:30 53.20745 -4.56360 4486 ft 128 kts 37°
2026-04-25 19:31 53.21599 -4.56319 4310 ft 138 kts 327°
2026-04-25 19:31 53.22235 -4.57351 4197 ft 136 kts 304°
2026-04-25 19:31 53.22936 -4.58844 3025 ft 196 kts 311°
2026-04-25 19:31 53.24200 -4.60427 1733 ft 247 kts 352°
2026-04-25 19:32 53.25807 -4.60026 1899 ft 222 kts 13°
2026-04-25 19:32 53.26890 -4.58578 1904 ft 201 kts 77°
2026-04-25 19:32 53.26393 -4.56661 1413 ft 186 kts 130°
2026-04-25 19:32 53.25854 -4.55599 771 ft 171 kts 129°
2026-04-25 19:33 53.24895 -4.53685 241 ft 159 kts 128°
2026-04-25 19:33 53.24072 -4.52054 658 ft 202 kts 129°
2026-04-25 19:33 53.24063 -4.50286 1138 ft 159 kts 17°
2026-04-25 19:33 53.25011 -4.51069 1173 ft 168 kts 313°
2026-04-25 19:34 53.25807 -4.52483 1057 ft 166 kts 313°
2026-04-25 19:34 53.26586 -4.53914 861 ft 167 kts 310°
2026-04-25 19:34 53.26502 -4.55506 805 ft 146 kts 212°
2026-04-25 19:34 53.25674 -4.55288 404 ft 139 kts 125°
2026-04-25 19:35 53.25078 -4.54067 45 ft 125 kts 128°
2026-04-25 19:35 53.24543 -4.53020 37 ft 131 kts 130°
2026-04-25 19:35 53.23750 -4.51559 400 ft 211 kts 129°
2026-04-25 19:35 53.24322 -4.49816 1269 ft 256 kts 338°
2026-04-25 19:36 53.25535 -4.51781 1538 ft 231 kts 313°
2026-04-25 19:36 53.26626 -4.53720 1254 ft 229 kts 313°
2026-04-25 19:36 53.26923 -4.55712 1048 ft 185 kts 224°
2026-04-25 19:36 53.25900 -4.55680 475 ft 166 kts 129°
2026-04-25 19:37 53.25208 -4.54318 45 ft 135 kts 128°
2026-04-25 19:37 53.24620 -4.53184 47 ft 140 kts 131°
2026-04-25 19:37 53.23836 -4.51701 235 ft 198 kts 134°
2026-04-25 19:37 53.23688 -4.49731 1135 ft 220 kts 29°
2026-04-25 19:38 53.25023 -4.50933 1566 ft 244 kts 315°
2026-04-25 19:38 53.26170 -4.52878 1280 ft 218 kts 309°
2026-04-25 19:38 53.26978 -4.54712 892 ft 174 kts 278°
2026-04-25 19:38 53.26437 -4.56100 621 ft 146 kts 177°
2026-04-25 19:39 53.25672 -4.55219 190 ft 134 kts 128°
2026-04-25 19:39 53.25102 -4.54111 34 ft 113 kts 131°
2026-04-25 19:39 53.24536 -4.53024 89 ft 155 kts 130°
2026-04-25 19:39 53.23713 -4.51198 614 ft 224 kts 81°
2026-04-25 19:40 53.24898 -4.50610 1261 ft 240 kts 310°
2026-04-25 19:40 53.25965 -4.52558 1056 ft 212 kts 314°
2026-04-25 19:40 53.26899 -4.54255 804 ft 181 kts 302°
2026-04-25 19:40 53.26605 -4.55909 680 ft 151 kts 202°
2026-04-25 19:41 53.25754 -4.55361 212 ft 139 kts 131°
2026-04-25 19:41 53.25167 -4.54234 40 ft 115 kts 128°
2026-04-25 19:41 53.24707 -4.53334 34 ft 108 kts 129°
2026-04-25 19:41 53.24312 -4.52586 148 ft 147 kts 134°
2026-04-25 19:42 53.23485 -4.50136 1151 ft 220 kts 72°
2026-04-25 19:42 53.24771 -4.49677 1355 ft 231 kts 338°
2026-04-25 19:42 53.26395 -4.50912 1329 ft 284 kts 332°
2026-04-25 19:42 53.28379 -4.51250 2127 ft 321 kts 31°
2026-04-25 19:43 53.29009 -4.50185 2380 ft 338 kts 59°
2026-04-25 19:43 53.29377 -4.48731 2762 ft 345 kts 74°
2026-04-25 19:43 53.29884 -4.44939 2993 ft 338 kts 78°
2026-04-25 19:43 53.30400 -4.40949 2248 ft 374 kts 78°
2026-04-25 19:44 53.30938 -4.36721 1925 ft 349 kts 78°
2026-04-25 19:44 53.31416 -4.32956 2077 ft 323 kts 78°
2026-04-25 19:44 53.31867 -4.29390 2144 ft 304 kts 78°
2026-04-25 19:44 53.32293 -4.26030 2175 ft 287 kts 78°
2026-04-25 19:45 53.32698 -4.22847 2192 ft 274 kts 78°
2026-04-25 19:45 53.33008 -4.19651 2204 ft 282 kts 84°
2026-04-25 19:45 53.33204 -4.16364 2214 ft 285 kts 86°
2026-04-25 19:45 53.33366 -4.13044 2215 ft 288 kts 86°
2026-04-25 19:46 53.33514 -4.09683 2212 ft 290 kts 86°
2026-04-25 19:46 53.33651 -4.06188 2218 ft 319 kts 86°
2026-04-25 19:46 53.33797 -4.02260 2223 ft 357 kts 86°
2026-04-25 19:46 53.33996 -3.97937 2223 ft 384 kts 85°
2026-04-25 19:47 53.34259 -3.93555 2206 ft 377 kts 84°
2026-04-25 19:47 53.34540 -3.89156 2147 ft 377 kts 84°
2026-04-25 19:47 53.34816 -3.84943 2118 ft 347 kts 84°
2026-04-25 19:47 53.35065 -3.81111 2105 ft 318 kts 84°
2026-04-25 19:48 53.35296 -3.77551 2099 ft 297 kts 84°
2026-04-25 19:48 53.35512 -3.74252 2099 ft 280 kts 84°
2026-04-25 19:48 53.35720 -3.71059 2104 ft 274 kts 84°
2026-04-25 19:48 53.35922 -3.67979 2104 ft 260 kts 84°
2026-04-25 19:49 53.36115 -3.65032 2103 ft 249 kts 84°
2026-04-25 19:49 53.36178 -3.64061 2102 ft 245 kts 84°
2026-04-25 19:49 53.36469 -3.59605 2096 ft 218 kts 84°
2026-04-25 19:49 53.36630 -3.57125 2097 ft 212 kts 84°
2026-04-25 19:50 53.36935 -3.52254 2111 ft 208 kts 84°
2026-04-25 19:50 53.37086 -3.49856 2110 ft 207 kts 84°
2026-04-25 19:50 53.37243 -3.47337 2119 ft 228 kts 84°
2026-04-25 19:51 53.37416 -3.44565 2122 ft 247 kts 84°
2026-04-25 19:51 53.37605 -3.41563 2119 ft 280 kts 84°
2026-04-25 19:51 53.37824 -3.38072 2115 ft 311 kts 84°
2026-04-25 19:51 53.38032 -3.34764 2092 ft 270 kts 84°
2026-04-25 19:52 53.38224 -3.31684 2086 ft 264 kts 84°
2026-04-25 19:52 53.38416 -3.28633 2093 ft 265 kts 84°
2026-04-25 19:52 53.38610 -3.25553 2098 ft 266 kts 84°
2026-04-25 19:52 53.38802 -3.22484 2099 ft 264 kts 84°
2026-04-25 19:53 53.38982 -3.19620 2099 ft 263 kts 84°
2026-04-25 19:53 53.39174 -3.16581 2097 ft 260 kts 84°
2026-04-25 19:53 53.39361 -3.13627 2095 ft 255 kts 84°
2026-04-25 19:53 53.39545 -3.10692 2094 ft 251 kts 84°
2026-04-25 19:54 53.39724 -3.07818 2092 ft 246 kts 84°
2026-04-25 19:54 53.39908 -3.04970 2093 ft 244 kts 84°
2026-04-25 19:54 53.40090 -3.02185 2092 ft 238 kts 84°
2026-04-25 19:54 53.40151 -3.01252 2092 ft 239 kts 84°
2026-04-25 19:55 53.40458 -2.96609 2096 ft 243 kts 84°
2026-04-25 19:55 53.40646 -2.93782 2096 ft 246 kts 84°
2026-04-25 19:55 53.40835 -2.90919 2095 ft 248 kts 84°
2026-04-25 19:55 53.41026 -2.88028 2093 ft 253 kts 84°
2026-04-25 19:56 53.41221 -2.85077 2089 ft 254 kts 84°
2026-04-25 19:56 53.41413 -2.82145 2089 ft 252 kts 84°
2026-04-25 19:56 53.41600 -2.79301 2101 ft 242 kts 84°
2026-04-25 19:56 53.41781 -2.76564 2101 ft 230 kts 84°
2026-04-25 19:57 53.41954 -2.73972 2100 ft 216 kts 84°
2026-04-25 19:57 53.42113 -2.71555 2112 ft 201 kts 84°
2026-04-25 19:57 53.42262 -2.69324 2106 ft 185 kts 84°
2026-04-25 19:57 53.42360 -2.67262 2075 ft 171 kts 96°
2026-04-25 19:58 53.41900 -2.65504 2059 ft 175 kts 134°
2026-04-25 19:58 53.40808 -2.64458 2083 ft 192 kts 167°
2026-04-25 19:58 53.39446 -2.64285 2112 ft 196 kts 179°
2026-04-25 19:58 53.38076 -2.64277 2071 ft 203 kts 180°
2026-04-25 19:59 53.36644 -2.64298 2057 ft 206 kts 180°
2026-04-25 19:59 53.35322 -2.64948 2012 ft 198 kts 220°
2026-04-25 19:59 53.34531 -2.66756 1984 ft 191 kts 237°
2026-04-25 19:59 53.34034 -2.68799 1894 ft 190 kts 268°
2026-04-25 20:00 53.34025 -2.70961 1800 ft 183 kts 269°
2026-04-25 20:00 53.34014 -2.71681 1744 ft 185 kts 267°
2026-04-25 20:00 53.33833 -2.75010 1287 ft 158 kts 265°
2026-04-25 20:00 53.33721 -2.76791 968 ft 151 kts 266°
2026-04-25 20:01 53.33573 -2.80168 480 ft 139 kts 267°
2026-04-25 20:01 53.33507 -2.81742 288 ft 133 kts 267°
2026-04-25 20:01 53.33438 -2.83319 278 ft 153 kts 268°
2026-04-25 20:02 53.33335 -2.85622 698 ft 245 kts 266°
2026-04-25 20:02 53.33291 -2.88784 1716 ft 274 kts 295°
2026-04-25 20:02 53.34810 -2.90038 1926 ft 252 kts 356°
2026-04-25 20:02 53.36521 -2.90241 1896 ft 243 kts 356°
2026-04-25 20:03 53.38187 -2.90428 1885 ft 235 kts 356°
2026-04-25 20:03 53.39782 -2.90564 1860 ft 230 kts
2026-04-25 20:03 53.41180 -2.89293 1869 ft 241 kts 58°
2026-04-25 20:03 53.41499 -2.86551 1943 ft 245 kts 86°
2026-04-25 20:04 53.41583 -2.83647 1957 ft 253 kts 88°
2026-04-25 20:04 53.41633 -2.80656 1950 ft 261 kts 90°
2026-04-25 20:04 53.41616 -2.77593 1880 ft 271 kts 89°
2026-04-25 20:04 53.41642 -2.74482 1978 ft 261 kts 90°
2026-04-25 20:05 53.41657 -2.71491 1977 ft 254 kts 90°
2026-04-25 20:05 53.41673 -2.68550 1987 ft 250 kts 89°
2026-04-25 20:05 53.41688 -2.65652 1991 ft 247 kts 90°
2026-04-25 20:05 53.41719 -2.62794 1968 ft 244 kts 98°
2026-04-25 20:06 53.40723 -2.60596 1960 ft 256 kts 160°
2026-04-25 20:06 53.38967 -2.60345 2061 ft 249 kts 178°
2026-04-25 20:06 53.37288 -2.60268 2083 ft 233 kts 178°
2026-04-25 20:06 53.35763 -2.60764 2058 ft 223 kts 213°
2026-04-25 20:07 53.34778 -2.62682 2015 ft 215 kts 236°
2026-04-25 20:07 53.34224 -2.64912 1887 ft 210 kts 271°
2026-04-25 20:07 53.34205 -2.67319 1899 ft 206 kts 266°
2026-04-25 20:07 53.34097 -2.69701 1815 ft 208 kts 265°
2026-04-25 20:08 53.33989 -2.71985 1637 ft 185 kts 265°
2026-04-25 20:08 53.33856 -2.74031 1343 ft 171 kts 266°
2026-04-25 20:08 53.33765 -2.75912 1024 ft 156 kts 267°
2026-04-25 20:08 53.33686 -2.77696 760 ft 151 kts 268°
2026-04-25 20:09 53.33620 -2.79403 567 ft 143 kts 268°
2026-04-25 20:09 53.33541 -2.81035 344 ft 139 kts 268°
2026-04-25 20:09 53.33471 -2.82612 163 ft 132 kts 267°
2026-04-25 20:09 53.33402 -2.84095 95 ft 116 kts 268°
2026-04-25 20:10 53.33368 -2.84919 91 ft 107 kts 266°
2026-04-25 20:10 53.33256 -2.87387 340 ft 221 kts 269°
2026-04-25 20:10 53.33412 -2.90438 931 ft 315 kts 286°
2026-04-25 20:10 53.34354 -2.94318 1670 ft 403 kts 294°
2026-04-25 20:11 53.35367 -2.98628 2102 ft 364 kts 285°
2026-04-25 20:11 53.35837 -3.02600 2438 ft 336 kts 279°
2026-04-25 20:11 53.36173 -3.06418 2439 ft 330 kts 277°
2026-04-25 20:11 53.36463 -3.10229 2180 ft 327 kts 277°
2026-04-25 20:12 53.36668 -3.12718 2144 ft 321 kts 277°
2026-04-25 20:12 53.36813 -3.16401 2104 ft 313 kts 271°
2026-04-25 20:12 53.36862 -3.20035 2104 ft 311 kts 271°
2026-04-25 20:12 53.36897 -3.22467 2105 ft 308 kts 271°
2026-04-25 20:13 53.36963 -3.27179 2104 ft 303 kts 271°
2026-04-25 20:13 53.36999 -3.30695 2105 ft 300 kts 268°
2026-04-25 20:13 53.36724 -3.34129 2107 ft 297 kts 257°
2026-04-25 20:13 53.36166 -3.37446 2107 ft 294 kts 251°
2026-04-25 20:14 53.35498 -3.40701 2110 ft 301 kts 250°
2026-04-25 20:14 53.34791 -3.44064 2114 ft 310 kts 250°
2026-04-25 20:14 53.34064 -3.47507 2113 ft 316 kts 250°
2026-04-25 20:14 53.33333 -3.50994 2109 ft 319 kts 252°
2026-04-25 20:15 53.32841 -3.54631 2107 ft 322 kts 261°
2026-04-25 20:15 53.32605 -3.58375 2108 ft 324 kts 265°
2026-04-25 20:15 53.32448 -3.62138 2108 ft 321 kts 266°
2026-04-25 20:15 53.32319 -3.65824 2107 ft 314 kts 266°
2026-04-25 20:16 53.32208 -3.69471 2108 ft 322 kts 268°
2026-04-25 20:16 53.32078 -3.73393 2112 ft 351 kts 264°
2026-04-25 20:16 53.31758 -3.77520 2113 ft 374 kts 261°
2026-04-25 20:16 53.31330 -3.81955 2113 ft 397 kts 261°
2026-04-25 20:17 53.30867 -3.86646 2109 ft 420 kts 260°
2026-04-25 20:17 53.30403 -3.91199 2095 ft 377 kts 260°
2026-04-25 20:17 53.29980 -3.95360 2094 ft 352 kts 260°
2026-04-25 20:17 53.29629 -3.99333 2097 ft 339 kts 262°
2026-04-25 20:18 53.29359 -4.03188 2094 ft 328 kts 263°
2026-04-25 20:18 53.29120 -4.06934 2098 ft 319 kts 264°
2026-04-25 20:18 53.28896 -4.10581 2109 ft 316 kts 264°
2026-04-25 20:18 53.28692 -4.14259 2105 ft 318 kts 265°
2026-04-25 20:19 53.28565 -4.17943 2100 ft 324 kts 267°
2026-04-25 20:19 53.28499 -4.21669 2094 ft 316 kts 268°
2026-04-25 20:19 53.28461 -4.25289 2093 ft 307 kts 269°
2026-04-25 20:19 53.28451 -4.28849 2094 ft 305 kts 270°
2026-04-25 20:20 53.28502 -4.32395 2096 ft 304 kts 271°
2026-04-25 20:20 53.28573 -4.35925 2104 ft 303 kts 271°
2026-04-25 20:20 53.28767 -4.39449 2002 ft 306 kts 277°
2026-04-25 20:20 53.29074 -4.43082 1788 ft 335 kts 278°
2026-04-25 20:21 53.29443 -4.47048 1630 ft 347 kts 278°
2026-04-25 20:21 53.29811 -4.51027 1383 ft 347 kts 278°
2026-04-25 20:21 53.30126 -4.54976 1242 ft 337 kts 275°
2026-04-25 20:21 53.29305 -4.58353 905 ft 342 kts 210°
2026-04-25 20:22 53.27131 -4.57859 757 ft 355 kts 139°
2026-04-25 20:22 53.25930 -4.55845 555 ft 380 kts 131°
2026-04-25 20:22 53.24554 -4.51092 851 ft 307 kts 44°
2026-04-25 20:22 53.26073 -4.51582 811 ft 243 kts 317°
2026-04-25 20:23 53.27222 -4.53526 865 ft 215 kts 313°
2026-04-25 20:23 53.27747 -4.55639 873 ft 191 kts 260°
2026-04-25 20:23 53.26975 -4.57017 683 ft 158 kts 185°
2026-04-25 20:23 53.26158 -4.56187 349 ft 138 kts 127°
2026-04-25 20:24 53.25586 -4.55043 147 ft 122 kts 128°
2026-04-25 20:24 53.25080 -4.54059 34 ft 98 kts 131°
2026-04-25 20:24 53.24812 -4.53528 34 ft 47 kts 132°
2026-04-25 20:24 53.24629 -4.53164 31 ft 32 kts 130°
2026-04-25 20:25 53.24548 -4.52962 30 ft 18 kts 92°
2026-04-25 20:25 53.24607 -4.52822 31 ft 13 kts 41°
2026-04-25 20:25 53.24678 -4.52803 31 ft 10 kts 323°
2026-04-25 20:25 53.24722 -4.52883 32 ft 10 kts 311°
2026-04-25 20:26 53.24772 -4.52984 32 ft 11 kts 307°
2026-04-25 20:26 53.24833 -4.53100 32 ft 15 kts 309°
2026-04-25 20:26 53.24900 -4.53232 33 ft 15 kts 309°
2026-04-25 20:26 53.24927 -4.53271 33 ft 6 kts 36°
2026-04-25 20:27 53.24949 -4.53250 33 ft 2 kts 340°